sensor_id;sensor_type;location;lat;lon;timestamp;pressure;altitude;pressure_sealevel;temperature;humidity
10464;BME280;5279;42.048;24.638;2023-04-29T00:01:25;97619.06;;;7.27;100.00
10464;BME280;5279;42.048;24.638;2023-04-29T00:03:52;97627.00;;;7.16;100.00
10464;BME280;5279;42.048;24.638;2023-04-29T00:06:19;97623.91;;;7.11;100.00
10464;BME280;5279;42.048;24.638;2023-04-29T00:08:46;97634.22;;;7.14;100.00
10464;BME280;5279;42.048;24.638;2023-04-29T00:14:20;97617.22;;;6.85;100.00
10464;BME280;5279;42.048;24.638;2023-04-29T00:16:49;97621.16;;;6.90;100.00
10464;BME280;5279;42.048;24.638;2023-04-29T00:19:16;97612.56;;;6.88;100.00
10464;BME280;5279;42.048;24.638;2023-04-29T00:21:43;97620.34;;;6.90;100.00
10464;BME280;5279;42.048;24.638;2023-04-29T00:24:10;97615.78;;;6.92;100.00
10464;BME280;5279;42.048;24.638;2023-04-29T00:26:36;97613.16;;;6.70;100.00
10464;BME280;5279;42.048;24.638;2023-04-29T00:29:03;97614.13;;;6.80;100.00
10464;BME280;5279;42.048;24.638;2023-04-29T00:31:30;97618.44;;;6.81;100.00
10464;BME280;5279;42.048;24.638;2023-04-29T00:33:59;97611.38;;;6.59;100.00
10464;BME280;5279;42.048;24.638;2023-04-29T00:36:26;97608.88;;;6.57;100.00
10464;BME280;5279;42.048;24.638;2023-04-29T00:38:58;97618.66;;;6.67;100.00
10464;BME280;5279;42.048;24.638;2023-04-29T00:41:25;97611.50;;;6.69;100.00
10464;BME280;5279;42.048;24.638;2023-04-29T00:43:53;97617.34;;;6.72;100.00
10464;BME280;5279;42.048;24.638;2023-04-29T00:46:20;97616.53;;;6.83;100.00
10464;BME280;5279;42.048;24.638;2023-04-29T00:48:48;97616.97;;;6.88;100.00
10464;BME280;5279;42.048;24.638;2023-04-29T00:51:17;97615.09;;;6.90;100.00
10464;BME280;5279;42.048;24.638;2023-04-29T00:53:44;97621.28;;;7.00;100.00
10464;BME280;5279;42.048;24.638;2023-04-29T00:56:11;97618.41;;;7.03;100.00
10464;BME280;5279;42.048;24.638;2023-04-29T00:58:41;97617.91;;;7.09;100.00
10464;BME280;5279;42.048;24.638;2023-04-29T01:01:14;97622.00;;;7.13;100.00
10464;BME280;5279;42.048;24.638;2023-04-29T01:03:42;97610.94;;;7.19;100.00
10464;BME280;5279;42.048;24.638;2023-04-29T01:06:19;97615.38;;;7.19;100.00
10464;BME280;5279;42.048;24.638;2023-04-29T01:08:59;97613.94;;;7.14;100.00
10464;BME280;5279;42.048;24.638;2023-04-29T01:11:34;97619.09;;;7.16;100.00
10464;BME280;5279;42.048;24.638;2023-04-29T01:14:04;97604.50;;;7.12;100.00
10464;BME280;5279;42.048;24.638;2023-04-29T01:16:36;97610.72;;;7.22;100.00
10464;BME280;5279;42.048;24.638;2023-04-29T01:19:14;97624.34;;;7.27;100.00
10464;BME280;5279;42.048;24.638;2023-04-29T01:21:47;97604.91;;;7.39;100.00
10464;BME280;5279;42.048;24.638;2023-04-29T01:24:16;97622.19;;;7.32;100.00
10464;BME280;5279;42.048;24.638;2023-04-29T01:26:47;97606.38;;;7.32;100.00
10464;BME280;5279;42.048;24.638;2023-04-29T01:29:21;97600.84;;;7.35;100.00
10464;BME280;5279;42.048;24.638;2023-04-29T01:31:57;97600.34;;;7.41;98.12
10464;BME280;5279;42.048;24.638;2023-04-29T01:34:36;97596.97;;;7.50;98.22
10464;BME280;5279;42.048;24.638;2023-04-29T01:37:12;97592.16;;;7.55;100.00
10464;BME280;5279;42.048;24.638;2023-04-29T01:39:50;97591.47;;;7.42;100.00
10464;BME280;5279;42.048;24.638;2023-04-29T01:42:26;97587.19;;;7.30;97.61
10464;BME280;5279;42.048;24.638;2023-04-29T01:45:00;97583.59;;;7.31;99.12
10464;BME280;5279;42.048;24.638;2023-04-29T01:47:30;97585.31;;;7.21;100.00
10464;BME280;5279;42.048;24.638;2023-04-29T01:49:59;97582.66;;;7.21;100.00
10464;BME280;5279;42.048;24.638;2023-04-29T01:52:27;97574.59;;;7.02;100.00
10464;BME280;5279;42.048;24.638;2023-04-29T01:54:56;97574.81;;;7.10;100.00
10464;BME280;5279;42.048;24.638;2023-04-29T01:57:23;97578.63;;;7.06;100.00
10464;BME280;5279;42.048;24.638;2023-04-29T01:59:50;97577.91;;;7.15;100.00
10464;BME280;5279;42.048;24.638;2023-04-29T02:02:17;97583.66;;;7.09;100.00
10464;BME280;5279;42.048;24.638;2023-04-29T02:04:45;97579.22;;;7.09;100.00
10464;BME280;5279;42.048;24.638;2023-04-29T02:07:13;97588.44;;;7.15;100.00
10464;BME280;5279;42.048;24.638;2023-04-29T02:09:40;97579.59;;;7.16;100.00
10464;BME280;5279;42.048;24.638;2023-04-29T02:12:08;97580.41;;;7.17;100.00
10464;BME280;5279;42.048;24.638;2023-04-29T02:14:35;97580.53;;;7.26;100.00
10464;BME280;5279;42.048;24.638;2023-04-29T02:17:02;97583.00;;;7.28;100.00
10464;BME280;5279;42.048;24.638;2023-04-29T02:19:29;97583.25;;;7.25;100.00
10464;BME280;5279;42.048;24.638;2023-04-29T02:21:56;97580.28;;;7.29;100.00
10464;BME280;5279;42.048;24.638;2023-04-29T02:24:23;97586.94;;;7.33;100.00
10464;BME280;5279;42.048;24.638;2023-04-29T02:26:50;97586.00;;;7.34;97.47
10464;BME280;5279;42.048;24.638;2023-04-29T02:29:19;97583.34;;;7.34;97.31
10464;BME280;5279;42.048;24.638;2023-04-29T02:31:46;97572.06;;;7.43;99.92
10464;BME280;5279;42.048;24.638;2023-04-29T02:34:13;97575.91;;;7.39;100.00
10464;BME280;5279;42.048;24.638;2023-04-29T02:36:40;97561.56;;;7.32;100.00
10464;BME280;5279;42.048;24.638;2023-04-29T02:39:08;97563.97;;;7.35;100.00
10464;BME280;5279;42.048;24.638;2023-04-29T02:41:35;97564.13;;;7.23;100.00
10464;BME280;5279;42.048;24.638;2023-04-29T02:44:02;97576.00;;;7.17;100.00
10464;BME280;5279;42.048;24.638;2023-04-29T02:46:31;97572.66;;;7.04;100.00
10464;BME280;5279;42.048;24.638;2023-04-29T02:48:59;97577.72;;;6.96;100.00
10464;BME280;5279;42.048;24.638;2023-04-29T02:51:27;97581.31;;;6.95;100.00
10464;BME280;5279;42.048;24.638;2023-04-29T02:53:55;97579.63;;;6.94;100.00
10464;BME280;5279;42.048;24.638;2023-04-29T02:56:23;97585.28;;;6.78;100.00
10464;BME280;5279;42.048;24.638;2023-04-29T02:58:50;97583.72;;;6.76;100.00
10464;BME280;5279;42.048;24.638;2023-04-29T03:01:17;97578.72;;;6.62;100.00
10464;BME280;5279;42.048;24.638;2023-04-29T03:03:45;97580.41;;;6.63;100.00
10464;BME280;5279;42.048;24.638;2023-04-29T03:06:13;97587.09;;;6.67;100.00
10464;BME280;5279;42.048;24.638;2023-04-29T03:08:41;97580.88;;;6.56;100.00
10464;BME280;5279;42.048;24.638;2023-04-29T03:11:08;97586.38;;;6.53;100.00
10464;BME280;5279;42.048;24.638;2023-04-29T03:13:35;97586.38;;;6.53;100.00
10464;BME280;5279;42.048;24.638;2023-04-29T03:16:02;97592.34;;;6.44;100.00
10464;BME280;5279;42.048;24.638;2023-04-29T03:18:32;97591.41;;;6.56;100.00
10464;BME280;5279;42.048;24.638;2023-04-29T03:21:00;97584.22;;;6.58;100.00
10464;BME280;5279;42.048;24.638;2023-04-29T03:23:28;97593.56;;;6.63;100.00
10464;BME280;5279;42.048;24.638;2023-04-29T03:25:55;97592.34;;;6.44;100.00
10464;BME280;5279;42.048;24.638;2023-04-29T03:28:23;97582.28;;;6.38;100.00
10464;BME280;5279;42.048;24.638;2023-04-29T03:30:49;97592.56;;;6.41;100.00
10464;BME280;5279;42.048;24.638;2023-04-29T03:33:17;97592.56;;;6.41;100.00
10464;BME280;5279;42.048;24.638;2023-04-29T03:35:43;97600.38;;;6.43;100.00
10464;BME280;5279;42.048;24.638;2023-04-29T03:38:12;97601.19;;;6.54;100.00
10464;BME280;5279;42.048;24.638;2023-04-29T03:40:39;97603.34;;;6.60;100.00
10464;BME280;5279;42.048;24.638;2023-04-29T03:43:06;97595.47;;;6.72;100.00
10464;BME280;5279;42.048;24.638;2023-04-29T03:45:33;97605.88;;;6.73;100.00
10464;BME280;5279;42.048;24.638;2023-04-29T03:48:00;97610.97;;;6.97;100.00
10464;BME280;5279;42.048;24.638;2023-04-29T03:50:28;97606.41;;;7.10;100.00
10464;BME280;5279;42.048;24.638;2023-04-29T03:52:54;97609.50;;;7.26;100.00
10464;BME280;5279;42.048;24.638;2023-04-29T03:55:23;97607.28;;;7.42;100.00
10464;BME280;5279;42.048;24.638;2023-04-29T03:57:50;97622.25;;;7.42;100.00
10464;BME280;5279;42.048;24.638;2023-04-29T04:00:17;97627.91;;;7.37;100.00
10464;BME280;5279;42.048;24.638;2023-04-29T04:02:44;97625.28;;;7.37;100.00
10464;BME280;5279;42.048;24.638;2023-04-29T04:05:11;97629.72;;;7.37;100.00
10464;BME280;5279;42.048;24.638;2023-04-29T04:07:38;97629.47;;;7.40;100.00
10464;BME280;5279;42.048;24.638;2023-04-29T04:10:05;97637.41;;;7.29;100.00
10464;BME280;5279;42.048;24.638;2023-04-29T04:12:34;97637.50;;;7.38;100.00
10464;BME280;5279;42.048;24.638;2023-04-29T04:15:01;97643.69;;;7.48;100.00
10464;BME280;5279;42.048;24.638;2023-04-29T04:17:29;97633.06;;;7.39;100.00
10464;BME280;5279;42.048;24.638;2023-04-29T04:19:56;97635.91;;;7.47;100.00
10464;BME280;5279;42.048;24.638;2023-04-29T04:22:23;97636.97;;;7.55;100.00
10464;BME280;5279;42.048;24.638;2023-04-29T04:24:50;97632.41;;;7.57;100.00
10464;BME280;5279;42.048;24.638;2023-04-29T04:27:17;97631.88;;;7.75;98.33
10464;BME280;5279;42.048;24.638;2023-04-29T04:29:45;97635.88;;;7.90;96.21
10464;BME280;5279;42.048;24.638;2023-04-29T04:32:12;97636.91;;;7.98;98.84
10464;BME280;5279;42.048;24.638;2023-04-29T04:34:42;97625.91;;;8.14;96.45
10464;BME280;5279;42.048;24.638;2023-04-29T04:37:09;97621.03;;;8.30;98.09
10464;BME280;5279;42.048;24.638;2023-04-29T04:39:37;97616.56;;;8.51;97.24
10464;BME280;5279;42.048;24.638;2023-04-29T04:42:04;97618.59;;;8.68;93.16
10464;BME280;5279;42.048;24.638;2023-04-29T04:44:31;97621.50;;;8.96;90.73
10464;BME280;5279;42.048;24.638;2023-04-29T04:46:59;97620.59;;;9.25;87.06
10464;BME280;5279;42.048;24.638;2023-04-29T04:49:26;97614.50;;;9.44;85.02
10464;BME280;5279;42.048;24.638;2023-04-29T04:51:53;97619.00;;;9.72;81.95
10464;BME280;5279;42.048;24.638;2023-04-29T04:54:20;97633.19;;;9.91;80.11
10464;BME280;5279;42.048;24.638;2023-04-29T04:56:47;97625.22;;;10.00;83.06
10464;BME280;5279;42.048;24.638;2023-04-29T04:59:16;97636.81;;;10.09;85.74
10464;BME280;5279;42.048;24.638;2023-04-29T05:01:43;97645.31;;;10.22;82.04
10464;BME280;5279;42.048;24.638;2023-04-29T05:04:11;97651.03;;;10.36;80.67
10464;BME280;5279;42.048;24.638;2023-04-29T05:06:38;97644.91;;;10.36;76.76
10464;BME280;5279;42.048;24.638;2023-04-29T05:09:05;97654.50;;;10.37;76.77
10464;BME280;5279;42.048;24.638;2023-04-29T05:11:32;97652.41;;;10.31;75.47
10464;BME280;5279;42.048;24.638;2023-04-29T05:13:59;97658.25;;;10.44;74.57
10464;BME280;5279;42.048;24.638;2023-04-29T05:16:25;97651.13;;;10.54;72.91
10464;BME280;5279;42.048;24.638;2023-04-29T05:18:52;97655.44;;;10.55;72.53
10464;BME280;5279;42.048;24.638;2023-04-29T05:21:20;97647.06;;;10.60;73.75
10464;BME280;5279;42.048;24.638;2023-04-29T05:23:47;97646.75;;;10.72;71.96
10464;BME280;5279;42.048;24.638;2023-04-29T05:26:14;97649.19;;;10.93;71.73
10464;BME280;5279;42.048;24.638;2023-04-29T05:28:41;97643.25;;;11.09;70.91
10464;BME280;5279;42.048;24.638;2023-04-29T05:31:08;97638.44;;;11.22;69.77
10464;BME280;5279;42.048;24.638;2023-04-29T05:33:35;97627.19;;;11.37;68.79
10464;BME280;5279;42.048;24.638;2023-04-29T05:36:03;97631.84;;;11.53;67.48
10464;BME280;5279;42.048;24.638;2023-04-29T05:38:33;97622.84;;;11.64;69.46
10464;BME280;5279;42.048;24.638;2023-04-29T05:41:00;97612.56;;;11.78;67.67
10464;BME280;5279;42.048;24.638;2023-04-29T05:43:28;97611.94;;;12.02;67.44
10464;BME280;5279;42.048;24.638;2023-04-29T05:45:55;97604.63;;;12.22;63.93
10464;BME280;5279;42.048;24.638;2023-04-29T05:48:21;97607.28;;;12.47;64.08
10464;BME280;5279;42.048;24.638;2023-04-29T05:50:50;97609.63;;;12.76;60.73
10464;BME280;5279;42.048;24.638;2023-04-29T05:53:18;97611.94;;;13.05;59.92
10464;BME280;5279;42.048;24.638;2023-04-29T05:55:46;97609.25;;;13.39;60.26
10464;BME280;5279;42.048;24.638;2023-04-29T05:58:15;97596.50;;;13.58;57.19
10464;BME280;5279;42.048;24.638;2023-04-29T06:00:42;97595.69;;;13.74;53.99
10464;BME280;5279;42.048;24.638;2023-04-29T06:03:09;97591.88;;;13.85;53.87
10464;BME280;5279;42.048;24.638;2023-04-29T06:05:36;97598.38;;;13.90;54.60
10464;BME280;5279;42.048;24.638;2023-04-29T06:08:03;97596.38;;;14.16;55.32
10464;BME280;5279;42.048;24.638;2023-04-29T06:10:30;97589.03;;;14.10;56.55
10464;BME280;5279;42.048;24.638;2023-04-29T06:13:00;97584.22;;;14.14;54.16
10464;BME280;5279;42.048;24.638;2023-04-29T06:15:27;97590.38;;;14.14;54.75
10464;BME280;5279;42.048;24.638;2023-04-29T06:17:54;97586.88;;;14.14;54.83
10464;BME280;5279;42.048;24.638;2023-04-29T06:20:21;97587.22;;;14.19;54.98
10464;BME280;5279;42.048;24.638;2023-04-29T06:22:47;97593.22;;;14.13;57.41
10464;BME280;5279;42.048;24.638;2023-04-29T06:25:14;97589.88;;;14.03;59.49
10464;BME280;5279;42.048;24.638;2023-04-29T06:27:41;97598.38;;;14.06;61.41
10464;BME280;5279;42.048;24.638;2023-04-29T06:30:11;97587.56;;;14.00;62.45
10464;BME280;5279;42.048;24.638;2023-04-29T06:32:39;97589.72;;;14.12;61.43
10464;BME280;5279;42.048;24.638;2023-04-29T06:35:06;97576.91;;;14.00;62.20
10464;BME280;5279;42.048;24.638;2023-04-29T06:37:34;97588.41;;;14.33;61.29
10464;BME280;5279;42.048;24.638;2023-04-29T06:40:01;97591.41;;;14.46;59.59
10464;BME280;5279;42.048;24.638;2023-04-29T06:42:28;97580.06;;;14.28;59.86
10464;BME280;5279;42.048;24.638;2023-04-29T06:45:00;97591.91;;;14.25;56.57
10464;BME280;5279;42.048;24.638;2023-04-29T06:47:29;97585.59;;;14.34;57.40
10464;BME280;5279;42.048;24.638;2023-04-29T06:49:55;97575.72;;;14.51;56.65
10464;BME280;5279;42.048;24.638;2023-04-29T06:52:22;97586.63;;;14.88;55.08
10464;BME280;5279;42.048;24.638;2023-04-29T06:54:49;97580.91;;;14.99;53.08
10464;BME280;5279;42.048;24.638;2023-04-29T06:57:16;97578.13;;;15.23;51.96
10464;BME280;5279;42.048;24.638;2023-04-29T06:59:44;97571.19;;;15.45;51.40
10464;BME280;5279;42.048;24.638;2023-04-29T07:02:11;97567.25;;;15.64;50.74
10464;BME280;5279;42.048;24.638;2023-04-29T07:04:39;97569.59;;;15.67;49.28
10464;BME280;5279;42.048;24.638;2023-04-29T07:07:07;97563.06;;;15.69;48.17
10464;BME280;5279;42.048;24.638;2023-04-29T07:09:34;97569.28;;;15.62;48.51
10464;BME280;5279;42.048;24.638;2023-04-29T07:12:01;97554.75;;;15.64;49.66
10464;BME280;5279;42.048;24.638;2023-04-29T07:14:29;97558.41;;;15.63;48.76
10464;BME280;5279;42.048;24.638;2023-04-29T07:16:56;97561.34;;;15.46;49.91
10464;BME280;5279;42.048;24.638;2023-04-29T07:19:23;97568.69;;;15.52;49.56
10464;BME280;5279;42.048;24.638;2023-04-29T07:21:51;97559.53;;;15.38;50.21
10464;BME280;5279;42.048;24.638;2023-04-29T07:24:18;97560.13;;;15.25;49.39
10464;BME280;5279;42.048;24.638;2023-04-29T07:26:45;97561.03;;;15.49;51.19
10464;BME280;5279;42.048;24.638;2023-04-29T07:29:12;97561.69;;;15.43;50.63
10464;BME280;5279;42.048;24.638;2023-04-29T07:31:38;97563.38;;;15.44;50.74
10464;BME280;5279;42.048;24.638;2023-04-29T07:34:05;97570.34;;;15.45;49.62
10464;BME280;5279;42.048;24.638;2023-04-29T07:36:32;97561.34;;;15.76;51.05
10464;BME280;5279;42.048;24.638;2023-04-29T07:39:01;97556.03;;;15.91;50.69
10464;BME280;5279;42.048;24.638;2023-04-29T07:41:28;97563.41;;;16.26;49.50
10464;BME280;5279;42.048;24.638;2023-04-29T07:43:55;97567.63;;;16.44;48.16
10464;BME280;5279;42.048;24.638;2023-04-29T07:46:22;97553.47;;;16.72;48.08
10464;BME280;5279;42.048;24.638;2023-04-29T07:48:49;97558.53;;;16.82;46.78
10464;BME280;5279;42.048;24.638;2023-04-29T07:51:16;97557.72;;;16.96;47.06
10464;BME280;5279;42.048;24.638;2023-04-29T07:53:43;97556.25;;;17.08;45.51
10464;BME280;5279;42.048;24.638;2023-04-29T07:56:11;97551.78;;;17.15;45.52
10464;BME280;5279;42.048;24.638;2023-04-29T07:58:41;97547.34;;;17.22;45.26
10464;BME280;5279;42.048;24.638;2023-04-29T08:01:09;97553.84;;;17.49;44.49
10464;BME280;5279;42.048;24.638;2023-04-29T08:03:36;97552.28;;;17.55;44.85
10464;BME280;5279;42.048;24.638;2023-04-29T08:06:04;97553.56;;;17.59;45.64
10464;BME280;5279;42.048;24.638;2023-04-29T08:08:32;97552.69;;;17.73;44.04
10464;BME280;5279;42.048;24.638;2023-04-29T08:10:59;97546.31;;;17.74;45.14
10464;BME280;5279;42.048;24.638;2023-04-29T08:13:27;97537.81;;;17.91;45.51
10464;BME280;5279;42.048;24.638;2023-04-29T08:15:54;97540.94;;;18.16;43.03
10464;BME280;5279;42.048;24.638;2023-04-29T08:18:20;97538.88;;;18.18;41.82
10464;BME280;5279;42.048;24.638;2023-04-29T08:20:47;97536.91;;;18.54;43.92
10464;BME280;5279;42.048;24.638;2023-04-29T08:23:15;97530.81;;;18.67;42.57
10464;BME280;5279;42.048;24.638;2023-04-29T08:25:44;97537.22;;;18.73;41.79
10464;BME280;5279;42.048;24.638;2023-04-29T08:28:11;97534.41;;;18.81;41.99
10464;BME280;5279;42.048;24.638;2023-04-29T08:30:40;97529.13;;;18.60;41.28
10464;BME280;5279;42.048;24.638;2023-04-29T08:33:07;97528.38;;;18.72;41.20
10464;BME280;5279;42.048;24.638;2023-04-29T08:35:35;97522.13;;;19.06;41.43
10464;BME280;5279;42.048;24.638;2023-04-29T08:38:03;97522.09;;;18.93;42.17
10464;BME280;5279;42.048;24.638;2023-04-29T08:40:33;97511.72;;;19.37;40.56
10464;BME280;5279;42.048;24.638;2023-04-29T08:43:02;97513.94;;;19.27;41.12
10464;BME280;5279;42.048;24.638;2023-04-29T08:45:29;97500.63;;;19.53;41.70
10464;BME280;5279;42.048;24.638;2023-04-29T08:48:00;97504.19;;;19.74;41.83
10464;BME280;5279;42.048;24.638;2023-04-29T08:50:29;97496.28;;;19.52;41.41
10464;BME280;5279;42.048;24.638;2023-04-29T08:52:56;97500.88;;;19.72;41.35
10464;BME280;5279;42.048;24.638;2023-04-29T08:55:24;97503.59;;;20.11;40.71
10464;BME280;5279;42.048;24.638;2023-04-29T08:57:53;97505.88;;;20.01;39.91
10464;BME280;5279;42.048;24.638;2023-04-29T09:00:21;97495.53;;;20.17;39.10
10464;BME280;5279;42.048;24.638;2023-04-29T09:02:50;97499.88;;;20.51;38.27
10464;BME280;5279;42.048;24.638;2023-04-29T09:05:20;97488.28;;;20.57;37.16
10464;BME280;5279;42.048;24.638;2023-04-29T09:07:47;97488.91;;;20.46;39.10
10464;BME280;5279;42.048;24.638;2023-04-29T09:10:16;97488.47;;;20.62;37.45
10464;BME280;5279;42.048;24.638;2023-04-29T09:12:44;97492.59;;;20.71;36.87
10464;BME280;5279;42.048;24.638;2023-04-29T09:15:11;97490.03;;;20.96;37.15
10464;BME280;5279;42.048;24.638;2023-04-29T09:17:42;97487.59;;;20.82;35.15
10464;BME280;5279;42.048;24.638;2023-04-29T09:20:30;97473.44;;;21.12;34.69
10464;BME280;5279;42.048;24.638;2023-04-29T09:22:58;97473.38;;;21.19;35.31
10464;BME280;5279;42.048;24.638;2023-04-29T09:25:26;97465.06;;;21.58;35.85
10464;BME280;5279;42.048;24.638;2023-04-29T09:27:53;97464.72;;;21.79;34.72
10464;BME280;5279;42.048;24.638;2023-04-29T09:30:20;97464.66;;;22.42;34.07
10464;BME280;5279;42.048;24.638;2023-04-29T09:33:05;97466.66;;;22.71;30.82
10464;BME280;5279;42.048;24.638;2023-04-29T09:35:34;97450.84;;;23.41;30.34
10464;BME280;5279;42.048;24.638;2023-04-29T09:38:09;97439.72;;;23.49;29.61
10464;BME280;5279;42.048;24.638;2023-04-29T09:40:36;97444.03;;;23.80;31.20
10464;BME280;5279;42.048;24.638;2023-04-29T09:43:10;97444.28;;;24.02;29.73
10464;BME280;5279;42.048;24.638;2023-04-29T09:45:40;97431.28;;;24.33;29.44
10464;BME280;5279;42.048;24.638;2023-04-29T09:48:08;97428.34;;;24.12;28.83
10464;BME280;5279;42.048;24.638;2023-04-29T09:50:38;97432.19;;;24.04;29.84
10464;BME280;5279;42.048;24.638;2023-04-29T09:53:07;97427.97;;;24.20;30.55
10464;BME280;5279;42.048;24.638;2023-04-29T09:55:35;97424.56;;;24.59;30.71
10464;BME280;5279;42.048;24.638;2023-04-29T09:58:02;97423.81;;;24.75;27.91
10464;BME280;5279;42.048;24.638;2023-04-29T10:00:30;97423.72;;;24.82;28.83
10464;BME280;5279;42.048;24.638;2023-04-29T10:02:59;97415.59;;;24.70;28.52
10464;BME280;5279;42.048;24.638;2023-04-29T10:05:27;97417.72;;;24.68;28.14
10464;BME280;5279;42.048;24.638;2023-04-29T10:07:56;97411.81;;;24.60;27.67
10464;BME280;5279;42.048;24.638;2023-04-29T10:10:23;97414.94;;;24.40;27.32
10464;BME280;5279;42.048;24.638;2023-04-29T10:12:52;97396.19;;;24.62;26.19
10464;BME280;5279;42.048;24.638;2023-04-29T10:15:25;97397.81;;;24.74;26.72
10464;BME280;5279;42.048;24.638;2023-04-29T10:17:57;97394.63;;;24.77;27.37
10464;BME280;5279;42.048;24.638;2023-04-29T10:20:26;97392.47;;;24.91;25.54
10464;BME280;5279;42.048;24.638;2023-04-29T10:22:56;97379.63;;;24.98;26.51
10464;BME280;5279;42.048;24.638;2023-04-29T10:25:24;97383.53;;;25.19;27.70
10464;BME280;5279;42.048;24.638;2023-04-29T10:27:54;97386.16;;;25.14;25.05
10464;BME280;5279;42.048;24.638;2023-04-29T10:30:21;97390.63;;;25.36;25.77
10464;BME280;5279;42.048;24.638;2023-04-29T10:32:49;97381.19;;;25.39;26.66
10464;BME280;5279;42.048;24.638;2023-04-29T10:35:17;97363.78;;;25.35;24.77
10464;BME280;5279;42.048;24.638;2023-04-29T10:37:46;97381.19;;;25.39;24.62
10464;BME280;5279;42.048;24.638;2023-04-29T10:40:17;97380.44;;;24.98;25.73
10464;BME280;5279;42.048;24.638;2023-04-29T10:42:48;97377.53;;;25.17;25.10
10464;BME280;5279;42.048;24.638;2023-04-29T10:45:19;97379.50;;;25.21;24.50
10464;BME280;5279;42.048;24.638;2023-04-29T10:48:14;97378.97;;;25.36;23.75
10464;BME280;5279;42.048;24.638;2023-04-29T10:51:01;97363.97;;;25.17;23.38
10464;BME280;5279;42.048;24.638;2023-04-29T10:53:29;97377.25;;;25.02;24.54
10464;BME280;5279;42.048;24.638;2023-04-29T10:56:02;97370.66;;;25.26;23.52
10464;BME280;5279;42.048;24.638;2023-04-29T10:58:41;97371.44;;;25.26;24.20
10464;BME280;5279;42.048;24.638;2023-04-29T11:01:12;97357.59;;;25.23;24.16
10464;BME280;5279;42.048;24.638;2023-04-29T11:03:50;97354.34;;;25.54;23.67
10464;BME280;5279;42.048;24.638;2023-04-29T11:06:23;97362.50;;;25.54;23.90
10464;BME280;5279;42.048;24.638;2023-04-29T11:09:01;97357.41;;;25.58;23.00
10464;BME280;5279;42.048;24.638;2023-04-29T11:11:41;97348.28;;;25.80;22.87
10464;BME280;5279;42.048;24.638;2023-04-29T11:14:09;97341.13;;;25.74;22.95
10464;BME280;5279;42.048;24.638;2023-04-29T11:16:36;97340.66;;;25.77;22.46
10464;BME280;5279;42.048;24.638;2023-04-29T11:19:05;97335.34;;;25.87;22.74
10464;BME280;5279;42.048;24.638;2023-04-29T11:21:33;97334.63;;;25.92;22.24
10464;BME280;5279;42.048;24.638;2023-04-29T11:24:00;97325.66;;;25.91;22.80
10464;BME280;5279;42.048;24.638;2023-04-29T11:26:28;97321.16;;;25.80;23.47
10464;BME280;5279;42.048;24.638;2023-04-29T11:28:59;97319.75;;;25.61;23.29
10464;BME280;5279;42.048;24.638;2023-04-29T11:31:26;97320.72;;;26.05;23.12
10464;BME280;5279;42.048;24.638;2023-04-29T11:33:56;97318.34;;;26.47;23.63
10464;BME280;5279;42.048;24.638;2023-04-29T11:36:22;97320.84;;;26.75;21.53
10464;BME280;5279;42.048;24.638;2023-04-29T11:38:50;97310.28;;;27.00;20.62
10464;BME280;5279;42.048;24.638;2023-04-29T11:41:17;97304.78;;;27.22;19.71
10464;BME280;5279;42.048;24.638;2023-04-29T11:43:45;97306.28;;;27.08;21.06
10464;BME280;5279;42.048;24.638;2023-04-29T11:46:14;97298.03;;;26.98;20.32
10464;BME280;5279;42.048;24.638;2023-04-29T11:48:48;97299.72;;;26.39;19.61
10464;BME280;5279;42.048;24.638;2023-04-29T11:51:16;97301.28;;;25.96;20.19
10464;BME280;5279;42.048;24.638;2023-04-29T11:53:44;97299.28;;;25.70;20.46
10464;BME280;5279;42.048;24.638;2023-04-29T11:56:11;97298.47;;;25.53;21.49
10464;BME280;5279;42.048;24.638;2023-04-29T11:58:38;97300.75;;;25.61;20.55
10464;BME280;5279;42.048;24.638;2023-04-29T12:01:05;97288.25;;;25.77;21.27
10464;BME280;5279;42.048;24.638;2023-04-29T12:03:33;97280.09;;;25.77;20.38
10464;BME280;5279;42.048;24.638;2023-04-29T12:06:01;97290.44;;;25.46;19.58
10464;BME280;5279;42.048;24.638;2023-04-29T12:08:29;97269.50;;;24.97;21.37
10464;BME280;5279;42.048;24.638;2023-04-29T12:10:58;97271.66;;;24.95;20.48
10464;BME280;5279;42.048;24.638;2023-04-29T12:13:28;97274.75;;;24.75;19.91
10464;BME280;5279;42.048;24.638;2023-04-29T12:15:56;97266.94;;;24.90;20.53
10464;BME280;5279;42.048;24.638;2023-04-29T12:18:23;97260.06;;;24.83;20.16
10464;BME280;5279;42.048;24.638;2023-04-29T12:20:53;97256.91;;;24.23;18.98
10464;BME280;5279;42.048;24.638;2023-04-29T12:23:22;97249.66;;;24.12;20.10
10464;BME280;5279;42.048;24.638;2023-04-29T12:25:52;97245.63;;;24.03;20.84
10464;BME280;5279;42.048;24.638;2023-04-29T12:28:19;97247.50;;;24.14;20.97
10464;BME280;5279;42.048;24.638;2023-04-29T12:30:49;97240.63;;;24.46;20.18
10464;BME280;5279;42.048;24.638;2023-04-29T12:33:18;97241.72;;;24.90;19.79
10464;BME280;5279;42.048;24.638;2023-04-29T12:35:55;97236.19;;;25.30;20.97
10464;BME280;5279;42.048;24.638;2023-04-29T12:38:24;97237.00;;;25.64;19.66
10464;BME280;5279;42.048;24.638;2023-04-29T12:40:52;97239.34;;;26.32;18.76
10464;BME280;5279;42.048;24.638;2023-04-29T12:43:18;97228.69;;;25.70;18.80
10464;BME280;5279;42.048;24.638;2023-04-29T12:45:45;97227.78;;;25.48;18.83
10464;BME280;5279;42.048;24.638;2023-04-29T12:48:12;97217.19;;;25.63;19.59
10464;BME280;5279;42.048;24.638;2023-04-29T12:50:39;97220.38;;;25.77;18.78
10464;BME280;5279;42.048;24.638;2023-04-29T12:53:08;97218.34;;;25.67;19.65
10464;BME280;5279;42.048;24.638;2023-04-29T12:55:36;97218.75;;;25.42;19.53
10464;BME280;5279;42.048;24.638;2023-04-29T12:58:04;97223.34;;;25.75;20.23
10464;BME280;5279;42.048;24.638;2023-04-29T13:00:33;97202.91;;;25.89;22.03
10464;BME280;5279;42.048;24.638;2023-04-29T13:03:01;97202.63;;;25.69;20.87
10464;BME280;5279;42.048;24.638;2023-04-29T13:05:28;97204.28;;;25.70;22.31
10464;BME280;5279;42.048;24.638;2023-04-29T13:07:55;97197.69;;;25.66;22.25
10464;BME280;5279;42.048;24.638;2023-04-29T13:10:23;97206.28;;;25.25;20.81